createdAt,value
2023-02-11T00:01:07.683Z,3.83
2023-02-11T00:03:35.569Z,3.90
2023-02-11T00:06:05.481Z,4.60
2023-02-11T00:08:33.258Z,3.80
2023-02-11T00:11:02.274Z,4.00
2023-02-11T00:13:29.940Z,4.30
2023-02-11T00:15:57.570Z,3.87
2023-02-11T00:18:25.371Z,4.67
2023-02-11T00:20:53.090Z,4.20
2023-02-11T00:23:20.763Z,5.20
2023-02-11T00:25:48.663Z,4.53
2023-02-11T00:28:17.879Z,5.03
2023-02-11T00:30:45.674Z,4.40
2023-02-11T00:33:13.412Z,3.90
2023-02-11T00:35:41.008Z,4.30
2023-02-11T00:38:08.703Z,4.43
2023-02-11T00:40:36.353Z,4.33
2023-02-11T00:43:03.991Z,4.13
2023-02-11T00:45:32.979Z,4.47
2023-02-11T00:48:00.589Z,4.53
2023-02-11T00:50:28.204Z,3.90
2023-02-11T00:52:55.912Z,4.67
2023-02-11T00:55:23.661Z,4.60
2023-02-11T00:57:51.791Z,4.27
2023-02-11T01:00:19.599Z,4.07
2023-02-11T01:02:48.645Z,4.20
2023-02-11T01:05:16.401Z,5.83
2023-02-11T01:07:44.103Z,4.40
2023-02-11T01:10:12.312Z,4.40
2023-02-11T01:12:40.443Z,4.53
2023-02-11T01:15:10.198Z,4.80
2023-02-11T01:17:37.835Z,4.77
2023-02-11T01:20:08.628Z,4.97
2023-02-11T01:22:37.417Z,4.57
2023-02-11T01:27:32.689Z,4.80
2023-02-11T01:30:00.442Z,4.77
2023-02-11T01:32:28.055Z,4.43
2023-02-11T01:34:55.733Z,5.77
2023-02-11T01:37:24.712Z,4.83
2023-02-11T01:39:52.527Z,4.63
2023-02-11T01:42:21.989Z,4.90
2023-02-11T01:44:52.307Z,4.20
2023-02-11T01:47:20.839Z,5.53
2023-02-11T01:49:52.906Z,4.78
2023-02-11T01:52:26.990Z,5.30
2023-02-11T01:55:16.196Z,4.87
2023-02-11T01:57:47.174Z,4.80
2023-02-11T02:00:20.295Z,4.43
2023-02-11T02:02:54.725Z,4.97
2023-02-11T02:05:33.386Z,6.00
2023-02-11T02:10:36.563Z,4.63
2023-02-11T02:13:04.528Z,4.60
2023-02-11T02:15:35.236Z,5.15
2023-02-11T02:18:15.049Z,5.63
2023-02-11T02:21:13.379Z,5.27
2023-02-11T02:24:13.876Z,5.57
2023-02-11T02:27:09.257Z,5.07
2023-02-11T02:30:03.670Z,6.13
2023-02-11T02:32:48.201Z,5.70
2023-02-11T02:35:25.964Z,4.70
2023-02-11T02:38:02.259Z,4.97
2023-02-11T02:40:34.267Z,5.53
2023-02-11T02:43:03.987Z,5.60
2023-02-11T02:45:31.846Z,5.27
2023-02-11T02:48:00.870Z,5.28
2023-02-11T02:50:32.325Z,5.50
2023-02-11T02:53:16.843Z,5.93
2023-02-11T02:55:58.623Z,6.07
2023-02-11T02:58:56.373Z,6.00
2023-02-11T03:01:36.738Z,6.43
2023-02-11T03:04:13.289Z,5.60
2023-02-11T03:06:49.591Z,5.63
2023-02-11T03:09:23.036Z,5.70
2023-02-11T03:11:51.158Z,7.27
2023-02-11T03:14:20.432Z,5.35
2023-02-11T03:16:50.963Z,5.90
2023-02-11T03:19:23.473Z,6.00
2023-02-11T03:21:54.273Z,6.50
2023-02-11T03:24:28.599Z,5.63
2023-02-11T03:26:59.833Z,5.60
2023-02-11T03:29:35.912Z,7.20
2023-02-11T03:32:12.181Z,7.37
2023-02-11T03:34:48.206Z,5.30
2023-02-11T03:37:20.959Z,7.13
2023-02-11T03:39:52.494Z,6.77
2023-02-11T03:42:20.564Z,7.27
2023-02-11T03:44:52.800Z,5.72
2023-02-11T03:47:24.986Z,6.73
2023-02-11T03:49:56.423Z,6.17
2023-02-11T03:52:26.644Z,6.73
2023-02-11T03:54:58.606Z,7.70
2023-02-11T03:57:26.258Z,6.87
2023-02-11T03:59:56.117Z,7.83
2023-02-11T04:02:26.705Z,6.93
2023-02-11T04:04:56.007Z,7.40
2023-02-11T04:07:23.745Z,7.90
2023-02-11T04:09:51.474Z,7.23
2023-02-11T04:12:19.326Z,8.10
2023-02-11T04:14:47.127Z,7.83
2023-02-11T04:17:14.845Z,7.87
2023-02-11T04:19:42.520Z,8.90
2023-02-11T04:22:11.636Z,9.20
2023-02-11T04:24:39.374Z,8.30
2023-02-11T04:27:07.037Z,8.60
2023-02-11T04:29:34.749Z,9.50
2023-02-11T04:32:02.407Z,8.83
2023-02-11T04:34:30.001Z,9.73
2023-02-11T04:36:57.715Z,9.17
2023-02-11T04:39:26.690Z,9.20
2023-02-11T04:41:54.298Z,9.07
2023-02-11T04:44:22.040Z,9.33
2023-02-11T04:46:49.736Z,9.73
2023-02-11T04:49:18.628Z,10.43
2023-02-11T04:54:17.342Z,10.40
2023-02-11T04:56:46.456Z,11.43
2023-02-11T04:59:14.101Z,11.03
2023-02-11T05:01:42.178Z,10.60
2023-02-11T05:04:09.920Z,12.18
2023-02-11T05:06:39.353Z,11.33
2023-02-11T05:09:07.027Z,11.73
2023-02-11T05:11:36.661Z,13.73
2023-02-11T05:14:05.926Z,13.13
2023-02-11T05:16:33.659Z,12.63
2023-02-11T05:19:01.737Z,13.90
2023-02-11T05:21:29.373Z,12.93
2023-02-11T05:23:57.047Z,14.43
2023-02-11T05:26:24.689Z,13.70
2023-02-11T05:28:52.348Z,13.40
2023-02-11T05:31:21.358Z,14.07
2023-02-11T05:33:49.022Z,14.30
2023-02-11T05:36:16.979Z,14.20
2023-02-11T05:38:44.853Z,15.23
2023-02-11T05:41:13.094Z,15.60
2023-02-11T05:43:40.726Z,14.95
2023-02-11T05:46:08.624Z,14.13
2023-02-11T05:48:37.600Z,14.73
2023-02-11T05:53:33.035Z,15.68
2023-02-11T05:56:00.748Z,16.07
2023-02-11T05:58:28.601Z,16.33
2023-02-11T06:00:56.270Z,15.35
2023-02-11T06:03:24.067Z,15.77
2023-02-11T06:05:53.295Z,15.87
2023-02-11T06:08:21.074Z,15.03
2023-02-11T06:10:48.736Z,15.93
2023-02-11T06:13:18.546Z,17.30
2023-02-11T06:15:46.388Z,17.40
2023-02-11T06:18:13.997Z,15.73
2023-02-11T06:20:41.844Z,17.10
2023-02-11T06:23:10.803Z,16.52
2023-02-11T06:25:38.528Z,17.40
2023-02-11T06:28:06.285Z,17.13
2023-02-11T06:30:33.997Z,17.00
2023-02-11T06:33:01.686Z,17.90
2023-02-11T06:35:30.517Z,17.60
2023-02-11T06:40:27.313Z,17.70
2023-02-11T06:42:54.944Z,18.93
2023-02-11T06:45:22.645Z,20.87
2023-02-11T06:47:52.796Z,18.13
2023-02-11T06:50:20.518Z,19.50
2023-02-11T06:52:48.234Z,19.33
2023-02-11T06:55:16.093Z,19.70
2023-02-11T06:57:45.280Z,20.02
2023-02-11T07:00:14.579Z,20.40
2023-02-11T07:02:42.411Z,22.20
2023-02-11T07:05:10.668Z,22.77
2023-02-11T07:07:38.438Z,20.90
2023-02-11T07:10:06.998Z,21.07
2023-02-11T07:12:34.676Z,20.70
2023-02-11T07:15:03.774Z,20.47
2023-02-11T07:17:31.397Z,22.07
2023-02-11T07:19:59.082Z,21.90
2023-02-11T07:22:26.731Z,21.57
2023-02-11T07:24:54.432Z,22.87
2023-02-11T07:27:22.013Z,22.77
2023-02-11T07:29:49.679Z,21.37
2023-02-11T07:32:18.810Z,21.13
2023-02-11T07:34:47.998Z,21.73
2023-02-11T07:37:15.685Z,23.80
2023-02-11T07:39:43.350Z,22.53
2023-02-11T07:42:11.018Z,22.57
2023-02-11T07:44:38.690Z,23.03
2023-02-11T07:47:06.400Z,23.60
2023-02-11T07:49:35.489Z,23.73
2023-02-11T07:52:03.129Z,22.73
2023-02-11T07:54:30.793Z,21.77
2023-02-11T07:56:58.713Z,22.27
2023-02-11T07:59:27.399Z,22.85
2023-02-11T08:01:55.185Z,23.88
2023-02-11T08:04:22.848Z,22.93
2023-02-11T08:06:52.828Z,23.13
2023-02-11T08:09:20.565Z,23.50
2023-02-11T08:11:48.185Z,21.60
2023-02-11T08:14:15.966Z,22.17
2023-02-11T08:16:44.037Z,22.50
2023-02-11T08:19:14.746Z,23.75
2023-02-11T08:21:42.689Z,23.30
2023-02-11T08:24:11.953Z,23.05
2023-02-11T08:26:39.716Z,22.60
2023-02-11T08:29:10.114Z,22.57
2023-02-11T08:31:40.480Z,23.37
2023-02-11T08:34:08.373Z,25.13
2023-02-11T08:36:37.686Z,22.90
2023-02-11T08:39:18.745Z,25.90
2023-02-11T08:41:49.866Z,24.40
2023-02-11T08:44:18.276Z,22.40
2023-02-11T08:46:45.864Z,22.63
2023-02-11T08:49:13.575Z,20.93
2023-02-11T08:51:41.321Z,22.17
2023-02-11T08:54:10.006Z,22.30
2023-02-11T08:59:07.487Z,20.93
2023-02-11T09:01:35.633Z,20.47
2023-02-11T09:04:03.482Z,20.83
2023-02-11T09:06:31.683Z,21.30
2023-02-11T09:08:59.469Z,21.52
2023-02-11T09:11:29.425Z,21.00
2023-02-11T09:13:57.236Z,20.50
2023-02-11T09:16:28.370Z,21.23
2023-02-11T09:18:58.344Z,20.53
2023-02-11T09:21:26.699Z,20.10
2023-02-11T09:23:54.530Z,20.35
2023-02-11T09:26:24.555Z,20.10
2023-02-11T09:28:53.570Z,20.87
2023-02-11T09:31:23.241Z,22.07
2023-02-11T09:33:54.105Z,20.80
2023-02-11T09:36:23.834Z,20.97
2023-02-11T09:38:52.004Z,20.03
2023-02-11T09:41:40.471Z,21.58
2023-02-11T09:44:11.172Z,19.90
2023-02-11T09:46:43.036Z,20.17
2023-02-11T09:49:20.962Z,18.77
2023-02-11T09:51:53.486Z,19.65
2023-02-11T09:54:27.791Z,19.53
2023-02-11T09:56:55.491Z,19.33
2023-02-11T09:59:23.891Z,21.63
2023-02-11T10:01:57.449Z,21.13
2023-02-11T10:04:45.407Z,21.97
2023-02-11T10:07:22.572Z,20.45
2023-02-11T10:10:01.561Z,19.70
2023-02-11T10:12:44.913Z,19.20
2023-02-11T10:15:33.432Z,18.50
2023-02-11T10:18:16.083Z,19.77
2023-02-11T10:20:57.115Z,19.67
2023-02-11T10:23:27.668Z,19.53
2023-02-11T10:25:57.058Z,19.53
2023-02-11T10:28:29.967Z,20.33
2023-02-11T10:31:01.242Z,19.83
2023-02-11T10:33:32.504Z,19.40
2023-02-11T10:36:01.782Z,18.50
2023-02-11T10:38:29.477Z,18.93
2023-02-11T10:40:57.135Z,17.97
2023-02-11T10:43:27.653Z,18.20
2023-02-11T10:45:56.899Z,18.33
2023-02-11T10:48:41.489Z,17.87
2023-02-11T10:51:18.703Z,17.33
2023-02-11T10:53:47.744Z,16.87
2023-02-11T10:56:23.245Z,16.93
2023-02-11T10:58:58.682Z,16.77
2023-02-11T11:01:40.348Z,15.00
2023-02-11T11:04:28.507Z,14.90
2023-02-11T11:06:57.879Z,12.80
2023-02-11T11:09:29.884Z,11.10
2023-02-11T11:11:57.932Z,9.37
2023-02-11T11:14:29.045Z,10.07
2023-02-11T11:16:56.877Z,9.87
2023-02-11T11:19:26.518Z,9.30
2023-02-11T11:21:55.959Z,9.93
2023-02-11T11:24:30.219Z,9.23
2023-02-11T11:27:01.911Z,9.60
2023-02-11T11:29:35.853Z,9.23
2023-02-11T11:32:06.549Z,8.53
2023-02-11T11:34:37.206Z,9.37
2023-02-11T11:37:12.742Z,8.87
2023-02-11T11:39:42.382Z,9.13
2023-02-11T11:42:26.552Z,8.30
2023-02-11T11:44:59.402Z,9.13
2023-02-11T11:47:36.063Z,9.13
2023-02-11T11:50:26.184Z,8.70
2023-02-11T11:53:01.210Z,8.60
2023-02-11T11:55:36.261Z,8.47
2023-02-11T11:58:05.142Z,9.33
2023-02-11T12:00:38.815Z,9.03
2023-02-11T12:03:52.266Z,9.13
2023-02-11T12:06:31.873Z,8.30
2023-02-11T12:09:10.792Z,8.37
2023-02-11T12:12:05.833Z,8.20
2023-02-11T12:14:42.239Z,7.83
2023-02-11T12:17:21.017Z,7.97
2023-02-11T12:20:02.349Z,7.77
2023-02-11T12:22:40.021Z,7.13
2023-02-11T12:25:24.896Z,7.97
2023-02-11T12:28:02.727Z,7.63
2023-02-11T12:30:49.076Z,7.63
2023-02-11T12:33:28.576Z,7.77
2023-02-11T12:36:03.263Z,7.90
2023-02-11T12:38:44.081Z,8.30
2023-02-11T12:41:47.030Z,7.93
2023-02-11T12:44:25.627Z,6.80
2023-02-11T12:49:49.274Z,7.13
2023-02-11T12:52:28.329Z,7.47
2023-02-11T12:55:01.400Z,7.50
2023-02-11T12:57:32.910Z,7.30
2023-02-11T13:00:08.898Z,8.33
2023-02-11T13:02:44.462Z,7.67
2023-02-11T13:05:24.136Z,8.03
2023-02-11T13:07:53.964Z,7.20
2023-02-11T13:10:28.965Z,7.40
2023-02-11T13:13:15.510Z,7.13
2023-02-11T13:15:48.738Z,7.67
2023-02-11T13:18:30.322Z,7.33
2023-02-11T13:21:05.100Z,6.87
2023-02-11T13:23:40.417Z,7.03
2023-02-11T13:26:18.112Z,7.07
2023-02-11T13:28:53.095Z,7.70
2023-02-11T13:31:26.712Z,7.03
2023-02-11T13:33:54.378Z,7.43
2023-02-11T13:36:26.741Z,7.87
2023-02-11T13:39:00.946Z,6.90
2023-02-11T13:41:38.071Z,6.80
2023-02-11T13:44:22.338Z,7.13
2023-02-11T13:46:55.895Z,7.00
2023-02-11T13:49:26.791Z,6.87
2023-02-11T13:51:55.854Z,7.33
2023-02-11T13:54:29.337Z,6.90
2023-02-11T13:57:35.544Z,6.80
2023-02-11T14:00:09.549Z,7.00
2023-02-11T14:02:56.590Z,6.97
2023-02-11T14:05:49.995Z,6.93
2023-02-11T14:08:43.140Z,6.93
2023-02-11T14:11:49.197Z,6.17
2023-02-11T14:14:25.537Z,6.37
2023-02-11T14:17:30.829Z,6.50
2023-02-11T14:20:02.171Z,6.60
2023-02-11T14:22:40.996Z,6.70
2023-02-11T14:25:19.435Z,7.03
2023-02-11T14:27:54.460Z,6.70
2023-02-11T14:30:33.600Z,6.30
2023-02-11T14:33:21.407Z,6.33
2023-02-11T14:36:02.049Z,6.22
2023-02-11T14:38:41.808Z,6.40
2023-02-11T14:41:17.177Z,6.40
2023-02-11T14:43:49.395Z,6.10
2023-02-11T14:46:18.652Z,6.33
2023-02-11T14:48:49.094Z,5.90
2023-02-11T14:51:23.301Z,6.03
2023-02-11T14:53:54.008Z,7.50
2023-02-11T14:56:24.594Z,6.60
2023-02-11T14:58:52.785Z,7.17
2023-02-11T15:01:27.072Z,6.85
2023-02-11T15:03:56.379Z,6.60
2023-02-11T15:06:29.122Z,6.77
2023-02-11T15:09:00.883Z,6.53
2023-02-11T15:11:31.237Z,6.40
2023-02-11T15:14:07.342Z,6.23
2023-02-11T15:16:36.007Z,6.00
2023-02-11T15:19:07.522Z,5.97
2023-02-11T15:21:37.684Z,5.40
2023-02-11T15:24:21.727Z,5.40
2023-02-11T15:26:57.362Z,5.63
2023-02-11T15:29:26.450Z,5.30
2023-02-11T15:32:15.731Z,5.70
2023-02-11T15:34:44.419Z,6.10
2023-02-11T15:37:18.102Z,6.20
2023-02-11T15:39:45.794Z,6.40
2023-02-11T15:42:25.899Z,7.03
2023-02-11T15:45:10.169Z,7.00
2023-02-11T15:47:37.900Z,6.43
2023-02-11T15:50:06.374Z,7.40
2023-02-11T15:52:35.669Z,6.45
2023-02-11T15:55:03.718Z,6.33
2023-02-11T15:57:31.604Z,6.18
2023-02-11T16:00:04.438Z,6.55
2023-02-11T16:02:34.264Z,6.30
2023-02-11T16:05:04.143Z,6.30
2023-02-11T16:07:44.859Z,5.83
2023-02-11T16:10:24.786Z,6.80
2023-02-11T16:12:54.702Z,7.23
2023-02-11T16:15:52.385Z,7.07
2023-02-11T16:18:38.760Z,6.88
2023-02-11T16:21:14.457Z,7.10
2023-02-11T16:23:44.476Z,7.27
2023-02-11T16:26:22.005Z,6.73
2023-02-11T16:28:50.213Z,6.47
2023-02-11T16:31:18.478Z,6.97
2023-02-11T16:33:46.300Z,7.18
2023-02-11T16:36:17.075Z,6.90
2023-02-11T16:38:46.241Z,7.13
2023-02-11T16:41:14.367Z,7.10
2023-02-11T16:43:42.038Z,6.72
2023-02-11T16:46:11.986Z,6.97
2023-02-11T16:48:39.593Z,7.30
2023-02-11T16:51:09.267Z,7.37
2023-02-11T16:53:36.913Z,7.73
2023-02-11T16:56:06.518Z,8.07
2023-02-11T16:58:34.187Z,8.00
2023-02-11T17:01:02.063Z,7.77
2023-02-11T17:03:30.304Z,7.22
2023-02-11T17:05:58.284Z,7.72
2023-02-11T17:08:26.010Z,7.80
2023-02-11T17:10:53.925Z,7.93
2023-02-11T17:13:23.123Z,7.95
2023-02-11T17:15:51.253Z,8.73
2023-02-11T17:18:19.107Z,8.30
2023-02-11T17:20:46.880Z,8.93
2023-02-11T17:23:14.576Z,8.83
2023-02-11T17:25:42.257Z,8.43
2023-02-11T17:28:12.029Z,8.50
2023-02-11T17:30:43.524Z,8.50
2023-02-11T17:33:11.204Z,9.27
2023-02-11T17:35:41.458Z,10.67
2023-02-11T17:38:09.136Z,10.47
2023-02-11T17:40:36.736Z,9.33
2023-02-11T17:43:04.615Z,9.27
2023-02-11T17:45:32.427Z,9.00
2023-02-11T17:48:01.489Z,9.70
2023-02-11T17:50:29.593Z,8.87
2023-02-11T17:52:57.910Z,8.88
2023-02-11T17:55:25.534Z,8.75
2023-02-11T17:57:53.137Z,9.80
2023-02-11T18:00:22.460Z,9.60
2023-02-11T18:02:50.205Z,9.03
2023-02-11T18:05:19.371Z,9.40
2023-02-11T18:07:48.014Z,9.07
2023-02-11T18:10:15.670Z,9.82
2023-02-11T18:12:43.445Z,9.87
2023-02-11T18:15:11.709Z,9.33
2023-02-11T18:17:39.357Z,9.07
2023-02-11T18:20:08.695Z,8.93
2023-02-11T18:22:40.163Z,9.87
2023-02-11T18:25:09.244Z,10.07
2023-02-11T18:27:37.160Z,10.10
2023-02-11T18:30:05.418Z,10.18
2023-02-11T18:32:33.260Z,10.32
2023-02-11T18:35:00.951Z,9.87
2023-02-11T18:37:28.619Z,10.23
2023-02-11T18:39:57.640Z,10.37
2023-02-11T18:42:25.351Z,10.90
2023-02-11T18:44:53.198Z,10.37
2023-02-11T18:47:20.855Z,11.13
2023-02-11T18:49:48.446Z,10.87
2023-02-11T18:52:16.075Z,10.87
2023-02-11T18:54:43.719Z,10.10
2023-02-11T18:57:12.730Z,12.47
2023-02-11T18:59:40.389Z,11.13
2023-02-11T19:02:08.071Z,10.80
2023-02-11T19:04:37.335Z,11.47
2023-02-11T19:07:04.968Z,10.63
2023-02-11T19:09:32.731Z,11.90
2023-02-11T19:12:01.908Z,11.27
2023-02-11T19:14:33.451Z,11.67
2023-02-11T19:17:03.344Z,12.07
2023-02-11T19:19:33.049Z,10.97
2023-02-11T19:22:02.587Z,11.23
2023-02-11T19:24:31.484Z,11.20
2023-02-11T19:27:01.672Z,11.63
2023-02-11T19:29:32.065Z,12.60
2023-02-11T19:31:59.824Z,15.03
2023-02-11T19:34:27.566Z,14.90
2023-02-11T19:36:55.474Z,12.07
2023-02-11T19:39:24.678Z,12.02
2023-02-11T19:41:52.339Z,12.57
2023-02-11T19:44:19.990Z,12.60
2023-02-11T19:46:52.787Z,12.97
2023-02-11T19:49:23.352Z,11.73
2023-02-11T19:51:51.471Z,12.27
2023-02-11T19:54:20.217Z,12.25
2023-02-11T19:56:48.752Z,12.32
2023-02-11T19:59:17.093Z,13.15
2023-02-11T20:01:47.513Z,12.43
2023-02-11T20:04:17.354Z,13.13
2023-02-11T20:06:45.493Z,13.07
2023-02-11T20:09:15.218Z,12.82
2023-02-11T20:11:43.436Z,12.30
2023-02-11T20:14:14.733Z,13.18
2023-02-11T20:16:49.228Z,12.43
2023-02-11T20:19:21.542Z,13.60
2023-02-11T20:21:52.096Z,13.80
2023-02-11T20:24:20.697Z,15.10
2023-02-11T20:26:49.066Z,12.80
2023-02-11T20:29:17.305Z,13.73
2023-02-11T20:31:45.546Z,13.75
2023-02-11T20:34:13.661Z,14.23
2023-02-11T20:36:42.755Z,14.02
2023-02-11T20:39:17.055Z,13.97
2023-02-11T20:41:45.927Z,14.17
2023-02-11T20:46:43.372Z,13.30
2023-02-11T20:49:12.285Z,13.80
2023-02-11T20:51:40.567Z,14.17
2023-02-11T20:54:13.220Z,13.15
2023-02-11T20:56:40.829Z,12.87
2023-02-11T20:59:08.854Z,12.90
2023-02-11T21:01:40.615Z,13.18
2023-02-11T21:04:12.560Z,13.13
2023-02-11T21:06:42.059Z,13.73
2023-02-11T21:09:14.489Z,13.73
2023-02-11T21:11:42.797Z,13.87
2023-02-11T21:14:11.980Z,14.48
2023-02-11T21:16:40.105Z,13.67
2023-02-11T21:19:08.080Z,13.00
2023-02-11T21:21:36.932Z,12.80
2023-02-11T21:26:35.218Z,13.63
2023-02-11T21:29:03.018Z,13.93
2023-02-11T21:31:34.329Z,13.50
2023-02-11T21:34:02.230Z,13.90
2023-02-11T21:36:30.905Z,14.20
2023-02-11T21:38:58.742Z,13.95
2023-02-11T21:41:27.326Z,13.70
2023-02-11T21:43:56.424Z,13.23
2023-02-11T21:46:24.167Z,13.00
2023-02-11T21:48:52.572Z,14.07
2023-02-11T21:51:22.741Z,13.88
2023-02-11T21:53:54.454Z,14.10
2023-02-11T21:56:22.478Z,14.50
2023-02-11T21:58:53.718Z,14.07
2023-02-11T22:01:26.176Z,14.07
2023-02-11T22:03:54.047Z,14.47
2023-02-11T22:06:23.697Z,12.82
2023-02-11T22:08:51.685Z,13.40
2023-02-11T22:11:20.283Z,15.25
2023-02-11T22:13:48.434Z,14.02
2023-02-11T22:16:18.020Z,13.13
2023-02-11T22:18:47.359Z,14.37
2023-02-11T22:21:17.798Z,13.70
2023-02-11T22:23:46.487Z,14.70
2023-02-11T22:26:15.622Z,13.98
2023-02-11T22:28:43.696Z,13.47
2023-02-11T22:31:13.801Z,14.27
2023-02-11T22:33:41.716Z,14.97
2023-02-11T22:36:16.676Z,14.30
2023-02-11T22:38:44.414Z,14.77
2023-02-11T22:41:13.136Z,14.27
2023-02-11T22:43:42.388Z,15.23
2023-02-11T22:46:12.088Z,14.30
2023-02-11T22:48:39.913Z,13.70
2023-02-11T22:51:09.121Z,14.73
2023-02-11T22:53:38.462Z,15.13
2023-02-11T22:56:08.042Z,15.33
2023-02-11T22:58:36.418Z,14.57
2023-02-11T23:01:05.283Z,14.65
2023-02-11T23:03:33.434Z,15.13
2023-02-11T23:06:01.906Z,15.35
2023-02-11T23:08:32.167Z,15.80
2023-02-11T23:11:06.375Z,14.43
2023-02-11T23:13:35.982Z,14.77
2023-02-11T23:16:06.064Z,15.27
2023-02-11T23:18:33.937Z,15.50
2023-02-11T23:21:05.651Z,16.45
2023-02-11T23:23:34.379Z,15.70
2023-02-11T23:28:31.906Z,15.73
2023-02-11T23:30:59.638Z,14.60
2023-02-11T23:33:27.576Z,14.65
2023-02-11T23:35:55.536Z,16.17
2023-02-11T23:38:23.389Z,15.82
2023-02-11T23:40:51.075Z,14.93
2023-02-11T23:43:18.744Z,16.00
2023-02-11T23:45:48.123Z,16.63
2023-02-11T23:48:15.808Z,15.83
2023-02-11T23:50:44.668Z,15.20
2023-02-11T23:53:12.407Z,15.53
2023-02-11T23:55:41.476Z,16.47
2023-02-11T23:58:10.533Z,16.60
